SLVZ weather

Villazon Airport
M.Omiste, Potosí Department, Bolivia

Public forecast

Using degrees Celsius for public forecast. Weather courtesy of forecast.io.

Closest aviation weather report (METAR) to Villazon Airport

Report is more than 2 hours old.

Closest report is Capitan Oriel Lea Plaza Airport, 58.6 nm (108.5 km) ENE. Retrieved 2019/10/23 03:00 UTC (6 hours ago):

SLTJ 230300Z 15005KT 9999 SCT036 17/06 Q1020

Closest aviation forecast (TAF) to Villazon Airport

Closest forecast is Capitan Oriel Lea Plaza Airport, 58.6 nm (108.5 km) ENE. Retrieved 2019/10/23 06:50 UTC (2 hours ago):

TAF SLTJ 230400Z 2306/2406 00000KT 9999 SCT036 TX27/2319Z TN10/2311Z BECMG 2314/2316 14010KT FEW036 BECMG 2402/2404 00000KT SCT030